Portada
METAR-TAF:

METAR-TAF

Aeroports :

Chibougamau, Quebec, Canadà

latitud: 49-46N, longitud: 074-32W, altitud: 388 m

Observació

L'informe es va fer fa 19 minuts, a les 14:00 UTC
Vent 3 kt del Sud/Sud-Est, variant entre Est i Sud
Temperatura 10°C
Humitat 82%
Pressió 1025 hPa
Visibilitat: 14.5 km
Cel clar

METAR: CYMT 171400Z AUTO 16003KT 100V190 9SM CLR 10/07 A3026 RMK SLP262

Hora: 10:19 (14:19 UTC)

Pronòstic

L'informe es va fer fa 2 hores i 41 minuts, a les 11:38 UTC
Pronòstic vàlid del 17 a les 12 UTC al 17 a les 24 UTC
Vent 3 kt amb direcció variable
Visibilitat: 0.8 km
a una alçada de 200 ft
boira
Evolucionant progressivament
l' 17 a les 12 UTC al 17 a les 14 UTC
Visibilitat: 9.7 km
Núvols disperses a una alçada de 200 ft
boirina
A partir de les 17 a les 2000 UTC
Vent 3 kt amb direcció variable
Visibilitat: 10 km
Cel clar

TAF: CYMT 171138Z 1712/1724 VRB03KT 1/2SM FG VV002 BECMG 1712/1714 6SM BR SCT002 FM172000 VRB03KT P6SM SKC RMK FCST BASED ON AUTO OBS. NXT FCST BY 171800Z

Observacions i pronòstics meteorològics de més de 4000 aeroports (METAR i TAF).

Les estacions disponibles són els punts grocs i vermells al mapa.

Posi el ratolí al punt desitjat per veure el nom de l'estació.

Feu clic per veure les observacions i els pronòstics meteorològics.

Per canviar el mapa: feu clic els botons verds amb una creu de color negre per apropar; al botó verd amb un guió per allunyar la imatge; o en les fletxes verdes per a mapes adjacents.


METAR-TAF: